createdAt,value
2023-01-17T00:00:19.332Z,1569
2023-01-17T00:05:22.079Z,1565
2023-01-17T00:10:40.274Z,1564
2023-01-17T00:15:48.454Z,1553
2023-01-17T00:21:06.893Z,1536
2023-01-17T00:26:25.412Z,1524
2023-01-17T00:31:43.998Z,1518
2023-01-17T00:37:03.446Z,1511
2023-01-17T00:42:22.438Z,1499
2023-01-17T00:47:40.942Z,1488
2023-01-17T00:52:59.189Z,1480
2023-01-17T00:58:17.645Z,1498
2023-01-17T01:03:35.875Z,1550
2023-01-17T01:08:54.095Z,1577
2023-01-17T01:14:12.332Z,1598
2023-01-17T01:19:31.106Z,1617
2023-01-17T01:24:49.531Z,1626
2023-01-17T01:30:07.459Z,1638
2023-01-17T01:35:25.732Z,1649
2023-01-17T01:40:28.586Z,1660
2023-01-17T01:45:46.882Z,1671
2023-01-17T01:51:05.684Z,1675
2023-01-17T01:56:24.269Z,1693
2023-01-17T02:01:42.849Z,1682
2023-01-17T02:07:01.388Z,1665
2023-01-17T02:12:19.302Z,1660
2023-01-17T02:17:37.235Z,1672
2023-01-17T02:22:55.511Z,1686
2023-01-17T02:28:13.748Z,1689
2023-01-17T02:33:32.262Z,1678
2023-01-17T02:38:50.198Z,1663
2023-01-17T02:44:08.731Z,1659
2023-01-17T02:49:27.557Z,1659
2023-01-17T02:54:46.120Z,1652
2023-01-17T03:00:04.612Z,1653
2023-01-17T03:05:22.631Z,1646
2023-01-17T03:10:41.411Z,1645
2023-01-17T03:15:59.630Z,1643
2023-01-17T03:21:18.122Z,1631
2023-01-17T03:26:36.383Z,1622
2023-01-17T03:31:54.655Z,1642
2023-01-17T03:37:13.153Z,1641
2023-01-17T03:42:31.109Z,1638
2023-01-17T03:47:49.075Z,1631
2023-01-17T03:53:07.302Z,1620
2023-01-17T03:58:25.811Z,1604
2023-01-17T04:03:44.653Z,1572
2023-01-17T04:09:02.884Z,1562
2023-01-17T04:14:21.435Z,1550
2023-01-17T04:19:40.141Z,1546
2023-01-17T04:24:58.361Z,1548
2023-01-17T04:30:17.186Z,1558
2023-01-17T04:35:35.151Z,1579
2023-01-17T04:40:53.678Z,1572
2023-01-17T04:46:11.920Z,1561
2023-01-17T04:51:30.332Z,1551
2023-01-17T04:56:48.820Z,1524
2023-01-17T05:02:07.153Z,1488
2023-01-17T05:07:25.604Z,1473
2023-01-17T05:12:47.779Z,1461
2023-01-17T05:18:07.555Z,1447
2023-01-17T05:23:25.658Z,1412
2023-01-17T05:28:43.916Z,1390
2023-01-17T05:34:02.165Z,1406
2023-01-17T05:39:20.121Z,1284
2023-01-17T05:44:38.405Z,1278
2023-01-17T05:49:56.930Z,1292
2023-01-17T05:55:15.443Z,1313
2023-01-17T06:00:33.935Z,1331
2023-01-17T06:05:57.072Z,1326
2023-01-17T06:11:15.092Z,1323
2023-01-17T06:16:34.247Z,1315
2023-01-17T06:21:52.766Z,1308
2023-01-17T06:27:11.430Z,1282
2023-01-17T06:32:29.912Z,1270
2023-01-17T06:37:48.482Z,1263
2023-01-17T06:43:06.689Z,1255
2023-01-17T06:48:24.632Z,1240
2023-01-17T06:53:42.587Z,1232
2023-01-17T06:59:00.812Z,1228
2023-01-17T07:04:19.133Z,1218
2023-01-17T07:09:37.352Z,1212
2023-01-17T07:14:56.553Z,1200
2023-01-17T07:20:15.372Z,1199
2023-01-17T07:25:18.308Z,1194
2023-01-17T07:30:36.869Z,1193
2023-01-17T07:35:55.526Z,1184
2023-01-17T07:41:13.803Z,1183
2023-01-17T07:46:32.511Z,1181
2023-01-17T07:51:50.610Z,1179
2023-01-17T07:57:08.602Z,1184
2023-01-17T08:02:26.546Z,1187
2023-01-17T08:07:29.477Z,1186
2023-01-17T08:12:48.271Z,1188
2023-01-17T08:18:06.873Z,1189
2023-01-17T08:23:25.440Z,1185
2023-01-17T08:28:43.935Z,1188
2023-01-17T08:34:02.492Z,1192
2023-01-17T08:39:20.694Z,1186
2023-01-17T08:44:39.177Z,1188
2023-01-17T08:49:57.776Z,1190
2023-01-17T08:55:16.275Z,1194
2023-01-17T09:00:34.307Z,1194
2023-01-17T09:05:53.153Z,1196
2023-01-17T09:11:11.323Z,1200
2023-01-17T09:16:29.677Z,1205
2023-01-17T09:21:48.494Z,1212
2023-01-17T09:27:07.455Z,1209
2023-01-17T09:32:26.253Z,1211
2023-01-17T09:37:44.514Z,1210
2023-01-17T09:43:03.038Z,1211
2023-01-17T09:48:21.553Z,1214
2023-01-17T09:53:40.064Z,1211
2023-01-17T09:58:58.600Z,1214
2023-01-17T10:04:17.309Z,1209
2023-01-17T10:09:35.620Z,1210
2023-01-17T10:14:54.101Z,1206
2023-01-17T10:20:13.180Z,1209
2023-01-17T10:25:31.106Z,1210
2023-01-17T10:30:49.921Z,1211
2023-01-17T10:36:08.582Z,1211
2023-01-17T10:41:27.043Z,1204
2023-01-17T10:46:50.756Z,1201
2023-01-17T10:52:09.572Z,1201
2023-01-17T10:57:28.380Z,1200
2023-01-17T11:02:47.164Z,1198
2023-01-17T11:08:06.092Z,1189
2023-01-17T11:13:24.798Z,1186
2023-01-17T11:18:42.992Z,1180
2023-01-17T11:24:01.231Z,1169
2023-01-17T11:29:19.442Z,1163
2023-01-17T11:34:37.682Z,1158
2023-01-17T11:39:42.047Z,1150
2023-01-17T11:45:02.733Z,1147
2023-01-17T11:50:21.528Z,1136
2023-01-17T11:55:39.927Z,1128
2023-01-17T12:00:58.232Z,1112
2023-01-17T12:06:16.935Z,1106
2023-01-17T12:11:35.470Z,1095
2023-01-17T12:16:53.688Z,1078
2023-01-17T12:22:12.196Z,1068
2023-01-17T12:27:31.053Z,1055
2023-01-17T12:32:49.024Z,1050
2023-01-17T12:38:07.499Z,1037
2023-01-17T12:43:26.431Z,1033
2023-01-17T12:48:44.719Z,1016
2023-01-17T12:54:03.519Z,1008
2023-01-17T12:59:22.014Z,1005
2023-01-17T13:04:57.183Z,1003
2023-01-17T13:10:17.447Z,1000
2023-01-17T13:15:36.012Z,1015
2023-01-17T13:20:54.836Z,1010
2023-01-17T13:26:13.097Z,1012
2023-01-17T13:31:31.671Z,1007
2023-01-17T13:36:50.528Z,1004
2023-01-17T13:42:09.311Z,1010
2023-01-17T13:47:27.837Z,1007
2023-01-17T13:52:46.595Z,1004
2023-01-17T13:58:05.387Z,1008
2023-01-17T14:03:24.037Z,1007
2023-01-17T14:08:42.569Z,1005
2023-01-17T14:14:01.336Z,1003
2023-01-17T14:19:19.592Z,1007
2023-01-17T14:24:38.117Z,1006
2023-01-17T14:29:56.936Z,1007
2023-01-17T14:35:15.960Z,1006
2023-01-17T14:40:34.224Z,1009
2023-01-17T14:45:53.073Z,1003
2023-01-17T14:51:11.296Z,830
2023-01-17T14:56:29.843Z,782
2023-01-17T15:02:01.964Z,826
2023-01-17T15:07:27.038Z,841
2023-01-17T15:12:45.317Z,854
2023-01-17T15:18:03.779Z,857
2023-01-17T15:23:22.026Z,870
2023-01-17T15:28:40.991Z,885
2023-01-17T15:33:59.767Z,891
2023-01-17T15:39:18.308Z,899
2023-01-17T15:44:47.308Z,911
2023-01-17T15:50:07.215Z,909
2023-01-17T15:55:25.990Z,907
2023-01-17T16:00:44.277Z,905
2023-01-17T16:06:02.830Z,907
2023-01-17T16:11:21.164Z,913
2023-01-17T16:16:40.067Z,916
2023-01-17T16:21:58.745Z,924
2023-01-17T16:27:18.369Z,927
2023-01-17T16:32:36.891Z,934
2023-01-17T16:37:55.133Z,952
2023-01-17T16:43:13.974Z,962
2023-01-17T16:48:32.788Z,984
2023-01-17T16:53:51.322Z,1011
2023-01-17T16:59:09.875Z,1016
2023-01-17T17:04:27.873Z,1014
2023-01-17T17:09:46.346Z,1012
2023-01-17T17:15:04.643Z,1020
2023-01-17T17:20:25.138Z,1018
2023-01-17T17:25:44.862Z,1021
2023-01-17T17:31:03.226Z,1024
2023-01-17T17:36:21.773Z,1026
2023-01-17T17:41:40.563Z,1038
2023-01-17T17:46:59.373Z,1050
2023-01-17T17:52:17.668Z,1088
2023-01-17T17:57:36.139Z,1101
2023-01-17T18:02:54.929Z,1103
2023-01-17T18:08:13.198Z,1129
2023-01-17T18:13:31.393Z,1153
2023-01-17T18:18:50.532Z,1167
2023-01-17T18:24:08.999Z,1173
2023-01-17T18:29:27.161Z,1190
2023-01-17T18:34:45.988Z,1215
2023-01-17T18:40:05.005Z,1225
2023-01-17T18:45:23.525Z,1236
2023-01-17T18:50:42.082Z,1242
2023-01-17T18:56:00.596Z,1249
2023-01-17T19:01:19.209Z,1250
2023-01-17T19:06:38.419Z,1255
2023-01-17T19:11:56.844Z,1266
2023-01-17T19:17:15.586Z,1279
2023-01-17T19:22:34.106Z,1293
2023-01-17T19:27:52.589Z,1308
2023-01-17T19:33:11.498Z,1315
2023-01-17T19:38:30.243Z,1316
2023-01-17T19:43:48.217Z,1315
2023-01-17T19:49:06.477Z,1328
2023-01-17T19:54:25.285Z,1326
2023-01-17T19:59:43.200Z,1332
2023-01-17T20:05:01.481Z,1342
2023-01-17T20:10:04.351Z,1356
2023-01-17T20:15:22.585Z,1374
2023-01-17T20:20:25.902Z,1403
2023-01-17T20:25:45.633Z,1432
2023-01-17T20:31:04.265Z,1458
2023-01-17T20:36:22.787Z,1497
2023-01-17T20:41:41.233Z,1533
2023-01-17T20:46:59.731Z,1570
2023-01-17T20:52:17.943Z,1611
2023-01-17T20:57:36.374Z,1658
2023-01-17T21:02:54.433Z,1708
2023-01-17T21:08:13.020Z,1759
2023-01-17T21:13:32.015Z,1771
2023-01-17T21:18:50.788Z,1803
2023-01-17T21:24:09.357Z,1820
2023-01-17T21:29:27.633Z,1824
2023-01-17T21:34:45.856Z,1840
2023-01-17T21:40:05.297Z,1864
2023-01-17T21:45:24.245Z,1865
2023-01-17T21:50:42.820Z,1856
2023-01-17T21:56:01.043Z,1852
2023-01-17T22:01:19.349Z,1855
2023-01-17T22:06:38.255Z,1851
2023-01-17T22:11:56.759Z,1853
2023-01-17T22:17:15.650Z,1864
2023-01-17T22:22:34.151Z,1877
2023-01-17T22:27:53.126Z,1874
2023-01-17T22:33:11.674Z,1870
2023-01-17T22:38:30.199Z,1870
2023-01-17T22:43:48.960Z,1860
2023-01-17T22:49:07.194Z,1865
2023-01-17T22:54:25.701Z,1869
2023-01-17T22:59:44.212Z,1862
2023-01-17T23:05:02.490Z,1870
2023-01-17T23:10:20.979Z,1868
2023-01-17T23:15:39.731Z,1869
2023-01-17T23:20:57.781Z,1883
2023-01-17T23:26:16.055Z,1876
2023-01-17T23:31:34.593Z,1887
2023-01-17T23:36:53.016Z,1879
2023-01-17T23:42:11.545Z,1862
2023-01-17T23:47:29.774Z,1863
2023-01-17T23:52:48.347Z,1859
2023-01-17T23:58:06.813Z,1862
